createdAt,value
2019-04-06T00:00:51.419Z,88.60
2019-04-06T00:03:18.901Z,80.70
2019-04-06T00:05:46.411Z,87.30
2019-04-06T00:08:13.915Z,82.60
2019-04-06T00:10:41.425Z,86.17
2019-04-06T00:13:08.912Z,82.73
2019-04-06T00:15:36.431Z,88.30
2019-04-06T00:18:03.938Z,90.17
2019-04-06T00:20:31.423Z,89.63
2019-04-06T00:22:58.908Z,84.20
2019-04-06T00:25:26.438Z,83.93
2019-04-06T00:27:53.962Z,87.17
2019-04-06T00:30:21.440Z,90.13
2019-04-06T00:32:55.200Z,91.87
2019-04-06T00:35:22.664Z,90.37
2019-04-06T00:37:50.146Z,86.53
2019-04-06T00:40:17.683Z,91.53
2019-04-06T00:42:45.170Z,93.43
2019-04-06T00:45:12.682Z,92.50
2019-04-06T00:47:40.156Z,88.20
2019-04-06T00:50:07.672Z,81.73
2019-04-06T00:52:35.329Z,85.30
2019-04-06T00:55:02.812Z,89.70
2019-04-06T00:57:30.316Z,88.27
2019-04-06T00:59:57.825Z,92.70
2019-04-06T01:02:25.346Z,93.20
2019-04-06T01:04:52.824Z,92.77
2019-04-06T01:07:20.308Z,96.77
2019-04-06T01:09:47.823Z,87.97
2019-04-06T01:12:15.336Z,91.03
2019-04-06T01:14:42.819Z,85.00
2019-04-06T01:17:10.337Z,91.50
2019-04-06T01:19:37.824Z,92.90
2019-04-06T01:22:05.346Z,83.43
2019-04-06T01:24:32.823Z,84.73
2019-04-06T01:27:00.311Z,92.43
2019-04-06T01:29:27.826Z,91.90
2019-04-06T01:31:55.339Z,92.00
2019-04-06T01:34:22.833Z,85.27
2019-04-06T01:36:50.317Z,89.23
2019-04-06T01:39:17.826Z,85.73
2019-04-06T01:41:45.385Z,86.57
2019-04-06T01:44:12.830Z,85.47
2019-04-06T01:46:40.355Z,85.10
2019-04-06T01:49:07.859Z,88.47
2019-04-06T01:51:35.374Z,93.33
2019-04-06T01:54:02.939Z,90.50
2019-04-06T01:56:30.343Z,93.13
2019-04-06T01:58:57.865Z,86.67
2019-04-06T02:01:25.346Z,85.50
2019-04-06T02:03:52.849Z,87.77
2019-04-06T02:06:20.336Z,88.70
2019-04-06T02:08:47.824Z,95.87
2019-04-06T02:11:15.304Z,84.00
2019-04-06T02:13:42.815Z,88.63
2019-04-06T02:16:10.260Z,84.73
2019-04-06T02:18:37.747Z,85.13
2019-04-06T02:21:05.238Z,83.70
2019-04-06T02:23:32.697Z,92.23
2019-04-06T02:26:00.161Z,84.47
2019-04-06T02:28:27.685Z,86.70
2019-04-06T02:31:07.229Z,89.73
2019-04-06T02:33:40.569Z,83.20
2019-04-06T02:36:13.887Z,85.77
2019-04-06T02:38:43.869Z,90.57
2019-04-06T02:41:29.740Z,85.80
2019-04-06T02:43:57.359Z,80.63
2019-04-06T02:46:24.841Z,85.73
2019-04-06T02:48:52.423Z,87.13
2019-04-06T02:51:19.743Z,86.77
2019-04-06T02:53:47.238Z,80.90
2019-04-06T02:56:14.803Z,83.20
2019-04-06T02:58:42.224Z,91.90
2019-04-06T03:01:09.684Z,86.25
2019-04-06T03:03:37.161Z,85.83
2019-04-06T03:06:04.615Z,83.30
2019-04-06T03:08:32.100Z,79.77
2019-04-06T03:10:59.569Z,85.77
2019-04-06T03:13:27.044Z,80.60
2019-04-06T03:15:54.524Z,82.00
2019-04-06T03:18:22.009Z,89.67
2019-04-06T03:20:49.518Z,79.53
2019-04-06T03:23:16.931Z,87.37
2019-04-06T03:25:44.533Z,88.50
2019-04-06T03:28:11.939Z,79.00
2019-04-06T03:30:39.370Z,87.17
2019-04-06T03:33:06.831Z,78.63
2019-04-06T03:35:34.325Z,85.90
2019-04-06T03:38:01.808Z,88.53
2019-04-06T03:40:29.292Z,87.90
2019-04-06T03:42:56.763Z,90.13
2019-04-06T03:45:24.231Z,85.50
2019-04-06T03:47:51.719Z,85.93
2019-04-06T03:50:19.275Z,84.30
2019-04-06T03:52:46.715Z,90.80
2019-04-06T03:55:14.170Z,86.67
2019-04-06T03:57:41.825Z,82.00
2019-04-06T04:00:09.011Z,88.40
2019-04-06T04:02:36.414Z,81.17
2019-04-06T04:05:04.034Z,80.00
2019-04-06T04:07:31.277Z,88.13
2019-04-06T04:09:58.723Z,87.93
2019-04-06T04:12:26.144Z,79.97
2019-04-06T04:14:53.745Z,88.37
2019-04-06T04:17:21.475Z,82.97
2019-04-06T04:19:48.754Z,88.03
2019-04-06T04:22:16.174Z,86.40
2019-04-06T04:24:43.618Z,93.23
2019-04-06T04:27:11.034Z,87.73
2019-04-06T04:29:38.441Z,79.83
2019-04-06T04:32:05.872Z,81.50
2019-04-06T04:34:33.280Z,87.80
2019-04-06T04:37:00.739Z,83.23
2019-04-06T04:39:28.119Z,81.47
2019-04-06T04:41:55.589Z,85.73
2019-04-06T04:44:23.002Z,85.47
2019-04-06T04:46:50.463Z,80.10
2019-04-06T04:49:17.892Z,82.20
2019-04-06T04:51:45.350Z,81.97
2019-04-06T04:54:12.764Z,80.10
2019-04-06T04:56:40.203Z,86.63
2019-04-06T04:59:07.702Z,84.57
2019-04-06T05:01:35.053Z,83.77
2019-04-06T05:04:02.488Z,83.13
2019-04-06T05:06:30.073Z,85.60
2019-04-06T05:08:57.325Z,90.40
2019-04-06T05:11:25.735Z,92.70
2019-04-06T05:13:53.159Z,91.43
2019-04-06T05:16:20.568Z,88.57
2019-04-06T05:18:48.002Z,86.63
2019-04-06T05:21:15.410Z,82.97
2019-04-06T05:23:42.836Z,77.73
2019-04-06T05:26:10.238Z,82.17
2019-04-06T05:28:37.690Z,90.10
2019-04-06T05:31:05.090Z,86.27
2019-04-06T05:33:32.533Z,86.03
2019-04-06T05:35:59.963Z,85.63
2019-04-06T05:38:27.397Z,88.57
2019-04-06T05:40:54.815Z,84.63
2019-04-06T05:43:22.254Z,90.53
2019-04-06T05:45:49.679Z,84.17
2019-04-06T05:48:17.123Z,82.50
2019-04-06T05:50:44.527Z,87.13
2019-04-06T05:53:11.946Z,88.60
2019-04-06T05:55:39.380Z,85.83
2019-04-06T05:58:09.783Z,88.20
2019-04-06T06:00:34.215Z,92.13
2019-04-06T06:03:01.622Z,91.00
2019-04-06T06:05:29.049Z,93.60
2019-04-06T06:07:56.479Z,90.83
2019-04-06T06:10:23.888Z,89.27
2019-04-06T06:12:51.317Z,95.50
2019-04-06T06:15:18.741Z,94.13
2019-04-06T06:17:46.181Z,84.97
2019-04-06T06:20:13.788Z,83.00
2019-04-06T06:22:41.037Z,99.37
2019-04-06T06:25:08.583Z,81.80
2019-04-06T06:27:35.886Z,91.83
2019-04-06T06:30:03.401Z,87.73
2019-04-06T06:32:31.423Z,87.87
2019-04-06T06:34:58.162Z,80.57
2019-04-06T06:37:25.590Z,75.63
2019-04-06T06:39:53.024Z,83.47
2019-04-06T06:42:20.426Z,75.33
2019-04-06T06:44:47.857Z,83.00
2019-04-06T06:47:15.452Z,78.93
2019-04-06T06:49:42.705Z,73.23
2019-04-06T06:52:10.339Z,74.13
2019-04-06T06:54:37.599Z,82.00
2019-04-06T06:57:05.110Z,76.00
2019-04-06T06:59:32.539Z,78.63
2019-04-06T07:02:00.147Z,75.00
2019-04-06T07:04:27.367Z,70.10
2019-04-06T07:06:54.812Z,75.37
2019-04-06T07:09:22.262Z,73.93
2019-04-06T07:11:49.686Z,70.07
2019-04-06T07:14:17.430Z,65.30
2019-04-06T07:16:44.650Z,70.30
2019-04-06T07:19:12.062Z,71.27
2019-04-06T07:21:39.489Z,69.37
2019-04-06T07:24:07.058Z,69.93
2019-04-06T07:26:34.606Z,59.90
2019-04-06T07:29:01.776Z,68.37
2019-04-06T07:31:29.189Z,63.97
2019-04-06T07:33:56.632Z,71.57
2019-04-06T07:36:24.057Z,68.30
2019-04-06T07:38:51.554Z,67.40
2019-04-06T07:41:18.930Z,70.70
2019-04-06T07:43:46.354Z,62.73
2019-04-06T07:46:13.779Z,57.47
2019-04-06T07:48:41.219Z,59.73
2019-04-06T07:51:08.638Z,60.13
2019-04-06T07:53:36.090Z,55.60
2019-04-06T07:56:03.564Z,46.57
2019-04-06T07:58:31.287Z,54.90
2019-04-06T08:00:58.455Z,53.40
2019-04-06T08:03:27.121Z,51.70
2019-04-06T08:05:54.536Z,50.83
2019-04-06T08:08:21.948Z,48.40
2019-04-06T08:10:49.388Z,47.63
2019-04-06T08:13:16.803Z,50.63
2019-04-06T08:15:44.295Z,44.87
2019-04-06T08:18:11.679Z,49.17
2019-04-06T08:20:39.125Z,49.20
2019-04-06T08:23:06.622Z,42.40
2019-04-06T08:25:33.987Z,46.63
2019-04-06T08:28:01.401Z,43.67
2019-04-06T08:30:28.832Z,57.30
2019-04-06T08:32:56.242Z,44.57
2019-04-06T08:35:26.010Z,42.47
2019-04-06T08:37:51.206Z,41.40
2019-04-06T08:40:18.704Z,39.33
2019-04-06T08:42:46.012Z,39.13
2019-04-06T08:45:14.170Z,35.07
2019-04-06T08:47:40.825Z,40.50
2019-04-06T08:50:08.288Z,34.67
2019-04-06T08:52:35.716Z,36.77
2019-04-06T08:55:03.160Z,37.00
2019-04-06T08:57:30.606Z,32.60
2019-04-06T08:59:58.072Z,34.27
2019-04-06T09:02:25.513Z,32.23
2019-04-06T09:04:53.117Z,30.57
2019-04-06T09:07:20.637Z,32.57
2019-04-06T09:09:48.091Z,29.60
2019-04-06T09:12:15.541Z,29.53
2019-04-06T09:14:43.113Z,32.90
2019-04-06T09:17:10.660Z,34.30
2019-04-06T09:19:38.089Z,34.50
2019-04-06T09:22:05.521Z,35.13
2019-04-06T09:24:32.936Z,30.27
2019-04-06T09:27:00.430Z,29.97
2019-04-06T09:29:27.827Z,29.10
2019-04-06T09:31:55.256Z,26.87
2019-04-06T09:34:22.690Z,28.67
2019-04-06T09:36:50.104Z,32.77
2019-04-06T09:39:17.545Z,31.90
2019-04-06T09:41:44.985Z,32.83
2019-04-06T09:44:12.781Z,35.50
2019-04-06T09:46:57.837Z,28.07
2019-04-06T09:49:43.618Z,31.40
2019-04-06T09:52:16.917Z,29.07
2019-04-06T09:55:02.289Z,28.17
2019-04-06T09:57:41.693Z,27.60
2019-04-06T10:00:09.316Z,30.97
2019-04-06T10:02:54.854Z,28.67
2019-04-06T10:05:25.053Z,26.57
2019-04-06T10:08:10.809Z,29.67
2019-04-06T10:10:40.901Z,28.90
2019-04-06T10:13:11.119Z,28.20
2019-04-06T10:15:56.996Z,19.20
2019-04-06T10:18:24.500Z,23.03
2019-04-06T10:21:00.754Z,20.47
2019-04-06T10:23:46.406Z,18.47
2019-04-06T10:26:13.811Z,20.80
2019-04-06T10:28:41.280Z,18.83
2019-04-06T10:31:08.688Z,18.43
2019-04-06T10:33:45.164Z,22.90
2019-04-06T10:36:18.654Z,19.77
2019-04-06T10:39:01.415Z,19.93
2019-04-06T10:41:43.995Z,19.87
2019-04-06T10:44:20.400Z,17.87
2019-04-06T10:47:05.890Z,17.17
2019-04-06T10:49:51.625Z,14.93
2019-04-06T10:52:30.871Z,14.63
2019-04-06T10:55:16.578Z,15.17
2019-04-06T10:57:43.983Z,18.97
2019-04-06T11:00:29.927Z,16.97
2019-04-06T11:02:57.130Z,16.17
2019-04-06T11:05:30.388Z,12.90
2019-04-06T11:08:00.876Z,16.40
2019-04-06T11:10:31.176Z,16.77
2019-04-06T11:13:03.970Z,16.70
2019-04-06T11:15:40.256Z,17.07
2019-04-06T11:18:22.930Z,19.30
2019-04-06T11:20:50.356Z,17.30
2019-04-06T11:23:20.550Z,18.83
2019-04-06T11:25:56.765Z,18.57
2019-04-06T11:28:24.217Z,18.87
2019-04-06T11:30:51.643Z,17.37
2019-04-06T11:33:27.858Z,16.90
2019-04-06T11:36:07.257Z,16.50
2019-04-06T11:38:52.790Z,15.33
2019-04-06T11:41:26.331Z,15.70
2019-04-06T11:43:56.705Z,16.83
2019-04-06T11:46:24.461Z,14.97
2019-04-06T11:49:10.005Z,15.13
2019-04-06T11:51:46.704Z,16.40
2019-04-06T11:54:25.875Z,17.37
2019-04-06T11:57:11.398Z,16.83
2019-04-06T11:59:38.825Z,18.67
2019-04-06T12:02:24.555Z,17.43
2019-04-06T12:04:54.646Z,16.77
2019-04-06T12:07:24.993Z,16.87
2019-04-06T12:10:01.368Z,16.77
2019-04-06T12:12:40.873Z,16.90
2019-04-06T12:15:17.273Z,16.70
2019-04-06T12:17:44.708Z,19.27
2019-04-06T12:20:20.880Z,17.23
2019-04-06T12:22:56.995Z,18.77
2019-04-06T12:25:33.162Z,19.00
2019-04-06T12:28:09.193Z,17.27
2019-04-06T12:30:39.432Z,18.23
2019-04-06T12:33:06.707Z,19.53
2019-04-06T12:35:49.153Z,18.97
2019-04-06T12:38:28.431Z,19.30
2019-04-06T12:40:56.310Z,17.30
2019-04-06T12:43:23.367Z,18.57
2019-04-06T12:45:59.967Z,18.97
2019-04-06T12:48:33.478Z,21.10
2019-04-06T12:51:06.601Z,19.03
2019-04-06T12:53:52.249Z,19.77
2019-04-06T12:56:28.187Z,17.93
2019-04-06T12:59:10.830Z,20.00
2019-04-06T13:01:38.256Z,20.93
2019-04-06T13:04:24.510Z,19.47
2019-04-06T13:07:03.972Z,20.70
2019-04-06T13:09:31.616Z,20.00
2019-04-06T13:12:13.657Z,21.77
2019-04-06T13:14:53.131Z,20.97
2019-04-06T13:17:23.543Z,22.90
2019-04-06T13:19:53.392Z,19.33
2019-04-06T13:22:39.591Z,21.83
2019-04-06T13:25:06.657Z,20.80
2019-04-06T13:27:36.779Z,23.77
2019-04-06T13:30:13.063Z,19.77
2019-04-06T13:32:42.910Z,20.83
2019-04-06T13:35:13.190Z,21.43
2019-04-06T13:37:40.644Z,22.07
2019-04-06T13:40:10.581Z,21.57
2019-04-06T13:42:37.985Z,22.43
2019-04-06T13:45:23.687Z,21.97
2019-04-06T13:47:51.212Z,21.17
2019-04-06T13:50:34.074Z,21.37
2019-04-06T13:53:19.633Z,21.93
2019-04-06T13:55:52.636Z,22.13
2019-04-06T13:58:20.121Z,22.17
2019-04-06T14:00:47.780Z,21.87
2019-04-06T14:03:23.763Z,21.70
2019-04-06T14:05:53.890Z,23.53
2019-04-06T14:08:21.301Z,21.77
2019-04-06T14:10:57.798Z,22.57
2019-04-06T14:13:43.617Z,21.20
2019-04-06T14:16:17.050Z,22.97
2019-04-06T14:19:02.880Z,23.47
2019-04-06T14:21:42.466Z,23.07
2019-04-06T14:24:28.478Z,22.37
2019-04-06T14:26:58.611Z,22.67
2019-04-06T14:29:25.685Z,22.30
2019-04-06T14:31:55.818Z,24.50
2019-04-06T14:34:25.852Z,20.33
2019-04-06T14:36:56.258Z,22.33
2019-04-06T14:39:26.704Z,21.90
2019-04-06T14:41:56.769Z,22.00
2019-04-06T14:44:42.331Z,21.50
2019-04-06T14:47:27.755Z,20.70
2019-04-06T14:50:10.381Z,23.00
2019-04-06T14:52:55.601Z,24.27
2019-04-06T14:55:25.761Z,21.43
2019-04-06T14:58:02.086Z,22.87
2019-04-06T15:00:41.501Z,21.57
2019-04-06T15:03:17.994Z,23.10
2019-04-06T15:05:52.807Z,23.47
2019-04-06T15:08:37.032Z,20.80
2019-04-06T15:11:04.486Z,21.73
2019-04-06T15:13:49.966Z,22.60
2019-04-06T15:16:26.672Z,24.67
2019-04-06T15:18:53.790Z,22.73
2019-04-06T15:21:30.283Z,22.77
2019-04-06T15:24:00.559Z,24.93
2019-04-06T15:26:36.779Z,21.83
2019-04-06T15:29:04.229Z,24.33
2019-04-06T15:31:49.890Z,23.73
2019-04-06T15:34:11.032Z,23.47
2019-04-06T15:36:38.466Z,21.83
2019-04-06T15:39:05.916Z,22.90
2019-04-06T15:41:33.328Z,23.37
2019-04-06T15:44:12.509Z,26.37
2019-04-06T15:46:40.230Z,25.13
2019-04-06T15:49:13.686Z,22.20
2019-04-06T15:52:09.615Z,26.47
2019-04-06T15:54:26.406Z,25.10
2019-04-06T15:56:53.883Z,23.07
2019-04-06T15:59:21.256Z,24.13
2019-04-06T16:02:03.893Z,23.97
2019-04-06T16:04:49.582Z,25.20
2019-04-06T16:07:29.729Z,22.57
2019-04-06T16:09:56.635Z,24.77
2019-04-06T16:12:23.838Z,24.33
2019-04-06T16:14:56.633Z,26.73
2019-04-06T16:17:26.844Z,25.10
2019-04-06T16:20:00.526Z,25.50
2019-04-06T16:22:39.997Z,24.87
2019-04-06T16:25:10.663Z,23.87
2019-04-06T16:27:43.746Z,25.17
2019-04-06T16:30:23.016Z,27.47
2019-04-06T16:32:50.764Z,28.53
2019-04-06T16:35:36.478Z,28.13
2019-04-06T16:38:06.649Z,35.70
2019-04-06T16:40:34.061Z,30.30
2019-04-06T16:43:11.004Z,24.37
2019-04-06T16:45:43.788Z,26.63
2019-04-06T16:48:29.139Z,28.40
2019-04-06T16:51:08.461Z,24.13
2019-04-06T16:53:38.346Z,25.93
2019-04-06T16:56:24.349Z,31.40
2019-04-06T16:59:06.586Z,30.50
2019-04-06T17:01:36.908Z,29.83
2019-04-06T17:04:10.214Z,33.17
2019-04-06T17:06:37.291Z,41.27
2019-04-06T17:09:04.924Z,29.87
2019-04-06T17:11:44.192Z,31.50
2019-04-06T17:14:17.391Z,33.80
2019-04-06T17:16:44.822Z,27.53
2019-04-06T17:19:17.937Z,29.80
2019-04-06T17:21:48.045Z,30.30
2019-04-06T17:24:21.196Z,33.93
2019-04-06T17:27:03.885Z,31.47
2019-04-06T17:29:49.809Z,34.30
2019-04-06T17:32:19.867Z,32.10
2019-04-06T17:35:02.723Z,32.87
2019-04-06T17:37:35.875Z,29.63
2019-04-06T17:40:12.293Z,29.70
2019-04-06T17:42:48.823Z,29.67
2019-04-06T17:45:28.682Z,29.83
2019-04-06T17:48:14.724Z,30.40
2019-04-06T17:50:54.511Z,30.20
2019-04-06T17:53:30.820Z,30.63
2019-04-06T17:56:17.305Z,29.47
2019-04-06T17:58:47.428Z,27.50
2019-04-06T18:01:33.037Z,28.70
2019-04-06T18:04:00.632Z,29.97
2019-04-06T18:06:33.642Z,31.47
2019-04-06T18:09:19.704Z,30.00
2019-04-06T18:11:52.987Z,30.77
2019-04-06T18:14:20.407Z,30.73
2019-04-06T18:16:47.847Z,29.43
2019-04-06T18:19:16.256Z,34.20
2019-04-06T18:21:43.690Z,32.63
2019-04-06T18:24:11.204Z,31.27
2019-04-06T18:26:38.555Z,36.13
2019-04-06T18:29:06.164Z,33.83
2019-04-06T18:31:51.432Z,35.30
2019-04-06T18:34:18.866Z,32.67
2019-04-06T18:36:46.293Z,37.43
2019-04-06T18:39:13.920Z,37.50
2019-04-06T18:41:41.144Z,38.53
2019-04-06T18:44:09.077Z,36.63
2019-04-06T18:46:36.033Z,40.50
2019-04-06T18:49:03.426Z,36.40
2019-04-06T18:51:30.866Z,35.27
2019-04-06T18:53:58.519Z,41.43
2019-04-06T18:56:25.717Z,39.33
2019-04-06T18:58:53.548Z,41.73
2019-04-06T19:01:20.614Z,38.47
2019-04-06T19:03:48.000Z,38.83
2019-04-06T19:06:16.224Z,39.67
2019-04-06T19:08:42.844Z,41.53
2019-04-06T19:11:10.292Z,40.53
2019-04-06T19:13:38.539Z,43.53
2019-04-06T19:16:05.474Z,42.13
2019-04-06T19:18:33.378Z,40.77
2019-04-06T19:21:00.350Z,42.07
2019-04-06T19:23:27.792Z,39.50
2019-04-06T19:25:55.199Z,38.33
2019-04-06T19:28:23.106Z,40.33
2019-04-06T19:30:50.059Z,45.63
2019-04-06T19:33:23.379Z,40.40
2019-04-06T19:35:44.952Z,42.53
2019-04-06T19:38:12.415Z,40.03
2019-04-06T19:40:39.822Z,41.60
2019-04-06T19:43:07.689Z,36.93
2019-04-06T19:45:34.724Z,39.97
2019-04-06T19:48:02.176Z,41.90
2019-04-06T19:50:29.578Z,39.93
2019-04-06T19:52:57.486Z,38.83
2019-04-06T19:55:24.599Z,40.33
2019-04-06T19:57:51.864Z,40.83
2019-04-06T20:00:19.287Z,38.13
2019-04-06T20:02:47.215Z,38.30
2019-04-06T20:05:14.177Z,40.53
2019-04-06T20:07:41.571Z,39.17
2019-04-06T20:10:09.028Z,39.00
2019-04-06T20:12:36.440Z,40.07
2019-04-06T20:15:03.994Z,37.07
2019-04-06T20:17:31.288Z,37.97
2019-04-06T20:19:58.723Z,40.17
2019-04-06T20:22:26.156Z,39.73
2019-04-06T20:24:53.618Z,41.10
2019-04-06T20:27:21.048Z,39.03
2019-04-06T20:29:48.695Z,41.30
2019-04-06T20:32:16.008Z,39.33
2019-04-06T20:34:43.555Z,40.57
2019-04-06T20:37:10.777Z,40.93
2019-04-06T20:39:38.254Z,42.37
2019-04-06T20:42:05.674Z,41.67
2019-04-06T20:44:33.261Z,41.80
2019-04-06T20:47:00.654Z,42.57
2019-04-06T20:49:28.098Z,43.07
2019-04-06T20:51:55.541Z,45.47
2019-04-06T20:54:23.047Z,41.43
2019-04-06T20:56:56.485Z,46.87
2019-04-06T20:59:18.309Z,47.53
2019-04-06T21:01:45.338Z,42.27
2019-04-06T21:04:12.759Z,45.87
2019-04-06T21:06:40.317Z,39.87
2019-04-06T21:09:07.738Z,43.03
2019-04-06T21:11:35.733Z,45.50
2019-04-06T21:14:03.310Z,46.83
2019-04-06T21:16:30.188Z,44.27
2019-04-06T21:18:57.618Z,44.93
2019-04-06T21:21:25.896Z,42.40
2019-04-06T21:23:52.979Z,44.50
2019-04-06T21:26:20.253Z,43.10
2019-04-06T21:28:47.732Z,39.03
2019-04-06T21:31:15.190Z,43.03
2019-04-06T21:33:45.041Z,39.73
2019-04-06T21:36:10.654Z,40.73
2019-04-06T21:38:37.715Z,40.80
2019-04-06T21:41:05.066Z,43.77
2019-04-06T21:43:32.814Z,41.03
2019-04-06T21:46:00.081Z,38.97
2019-04-06T21:48:27.241Z,43.00
2019-04-06T21:50:54.877Z,45.67
2019-04-06T21:53:22.124Z,44.23
2019-04-06T21:56:00.583Z,41.17
2019-04-06T21:58:17.660Z,40.67
2019-04-06T22:00:51.163Z,42.53
2019-04-06T22:03:18.019Z,40.63
2019-04-06T22:05:45.537Z,44.13
2019-04-06T22:08:13.115Z,42.97
2019-04-06T22:10:40.281Z,40.40
2019-04-06T22:13:08.267Z,43.83
2019-04-06T22:15:35.129Z,41.03
2019-04-06T22:18:02.559Z,37.83
2019-04-06T22:20:30.085Z,39.30
2019-04-06T22:22:57.519Z,39.13
2019-04-06T22:25:25.237Z,42.13
2019-04-06T22:27:52.885Z,43.00
2019-04-06T22:30:19.907Z,44.77
2019-04-06T22:32:47.270Z,42.43
2019-04-06T22:35:14.853Z,39.53
2019-04-06T22:37:42.119Z,43.97
2019-04-06T22:40:09.637Z,39.33
2019-04-06T22:42:37.134Z,41.17
2019-04-06T22:45:07.303Z,42.67
2019-04-06T22:47:34.789Z,43.50
2019-04-06T22:50:02.644Z,40.57
2019-04-06T22:52:29.634Z,36.00
2019-04-06T22:54:57.132Z,36.53
2019-04-06T22:57:25.072Z,41.00
2019-04-06T22:59:52.000Z,39.07
2019-04-06T23:02:19.435Z,37.20
2019-04-06T23:04:51.232Z,38.93
2019-04-06T23:07:16.764Z,39.37
2019-04-06T23:09:44.189Z,38.50
2019-04-06T23:12:11.923Z,37.80
2019-04-06T23:14:39.337Z,40.13
2019-04-06T23:17:06.493Z,39.43
2019-04-06T23:19:33.945Z,38.73
2019-04-06T23:22:01.362Z,41.00
2019-04-06T23:24:28.855Z,44.00
2019-04-06T23:26:56.768Z,46.47
2019-04-06T23:29:24.632Z,39.43
2019-04-06T23:31:52.148Z,40.53
2019-04-06T23:34:19.484Z,42.13
2019-04-06T23:36:47.359Z,46.03
2019-04-06T23:39:14.357Z,48.33
2019-04-06T23:41:41.772Z,45.60
2019-04-06T23:44:09.219Z,46.87
2019-04-06T23:46:36.696Z,42.03
2019-04-06T23:49:04.095Z,47.03
2019-04-06T23:51:31.519Z,48.73
2019-04-06T23:53:58.933Z,44.97
2019-04-06T23:56:26.585Z,43.33
2019-04-06T23:58:53.810Z,46.03
